sensor_id;sensor_type;location;lat;lon;timestamp;P1;durP1;ratioP1;P2;durP2;ratioP2
23410;SDS011;11878;51.774;7.220;2023-04-01T00:02:19;3.77;;;1.17;;
23410;SDS011;11878;51.774;7.220;2023-04-01T00:05:21;6.10;;;1.20;;
23410;SDS011;11878;51.774;7.220;2023-04-01T00:08:23;8.40;;;1.80;;
23410;SDS011;11878;51.774;7.220;2023-04-01T00:11:26;2.00;;;1.10;;
23410;SDS011;11878;51.774;7.220;2023-04-01T00:14:28;2.47;;;1.00;;
23410;SDS011;11878;51.774;7.220;2023-04-01T00:17:30;4.03;;;1.10;;
23410;SDS011;11878;51.774;7.220;2023-04-01T00:20:32;1.20;;;1.10;;
23410;SDS011;11878;51.774;7.220;2023-04-01T00:23:34;7.93;;;1.23;;
23410;SDS011;11878;51.774;7.220;2023-04-01T00:26:36;4.93;;;1.33;;
23410;SDS011;11878;51.774;7.220;2023-04-01T00:29:41;7.63;;;1.43;;
23410;SDS011;11878;51.774;7.220;2023-04-01T00:32:43;9.20;;;1.50;;
23410;SDS011;11878;51.774;7.220;2023-04-01T00:35:46;7.37;;;1.30;;
23410;SDS011;11878;51.774;7.220;2023-04-01T00:38:48;3.73;;;1.60;;
23410;SDS011;11878;51.774;7.220;2023-04-01T00:41:50;3.53;;;1.20;;
23410;SDS011;11878;51.774;7.220;2023-04-01T00:44:53;6.27;;;1.50;;
23410;SDS011;11878;51.774;7.220;2023-04-01T00:47:56;8.30;;;1.30;;
23410;SDS011;11878;51.774;7.220;2023-04-01T00:51:02;3.03;;;1.90;;
23410;SDS011;11878;51.774;7.220;2023-04-01T00:54:07;4.20;;;1.57;;
23410;SDS011;11878;51.774;7.220;2023-04-01T00:57:15;3.37;;;1.80;;
23410;SDS011;11878;51.774;7.220;2023-04-01T01:00:31;8.27;;;2.80;;
23410;SDS011;11878;51.774;7.220;2023-04-01T01:03:34;3.13;;;1.50;;
23410;SDS011;11878;51.774;7.220;2023-04-01T01:06:46;4.03;;;1.83;;
23410;SDS011;11878;51.774;7.220;2023-04-01T01:10:10;5.60;;;1.80;;
23410;SDS011;11878;51.774;7.220;2023-04-01T01:13:26;4.57;;;1.50;;
23410;SDS011;11878;51.774;7.220;2023-04-01T01:16:45;7.13;;;2.13;;
23410;SDS011;11878;51.774;7.220;2023-04-01T01:26:55;4.60;;;1.90;;
23410;SDS011;11878;51.774;7.220;2023-04-01T01:36:22;2.90;;;1.80;;
23410;SDS011;11878;51.774;7.220;2023-04-01T01:43:03;3.30;;;1.90;;
23410;SDS011;11878;51.774;7.220;2023-04-01T01:46:12;2.40;;;1.47;;
23410;SDS011;11878;51.774;7.220;2023-04-01T01:49:17;3.23;;;1.40;;
23410;SDS011;11878;51.774;7.220;2023-04-01T01:52:21;2.30;;;1.33;;
23410;SDS011;11878;51.774;7.220;2023-04-01T01:58:35;2.77;;;1.13;;
23410;SDS011;11878;51.774;7.220;2023-04-01T02:01:48;1.70;;;1.20;;
23410;SDS011;11878;51.774;7.220;2023-04-01T02:04:53;1.63;;;1.10;;
23410;SDS011;11878;51.774;7.220;2023-04-01T02:08:01;2.63;;;1.40;;
23410;SDS011;11878;51.774;7.220;2023-04-01T02:11:08;1.77;;;1.10;;
23410;SDS011;11878;51.774;7.220;2023-04-01T02:14:16;2.00;;;1.03;;
23410;SDS011;11878;51.774;7.220;2023-04-01T02:17:22;4.03;;;1.30;;
23410;SDS011;11878;51.774;7.220;2023-04-01T02:20:28;1.10;;;1.00;;
23410;SDS011;11878;51.774;7.220;2023-04-01T02:23:32;3.17;;;0.90;;
23410;SDS011;11878;51.774;7.220;2023-04-01T02:26:36;2.07;;;1.20;;
23410;SDS011;11878;51.774;7.220;2023-04-01T02:29:38;1.77;;;1.03;;
23410;SDS011;11878;51.774;7.220;2023-04-01T02:32:43;3.10;;;1.20;;
23410;SDS011;11878;51.774;7.220;2023-04-01T02:35:45;2.17;;;1.23;;
23410;SDS011;11878;51.774;7.220;2023-04-01T02:38:47;3.10;;;1.20;;
23410;SDS011;11878;51.774;7.220;2023-04-01T02:41:51;2.83;;;1.73;;
23410;SDS011;11878;51.774;7.220;2023-04-01T02:45:06;4.60;;;2.07;;
23410;SDS011;11878;51.774;7.220;2023-04-01T02:48:10;4.90;;;1.77;;
23410;SDS011;11878;51.774;7.220;2023-04-01T02:51:15;2.63;;;1.33;;
23410;SDS011;11878;51.774;7.220;2023-04-01T02:54:19;4.90;;;1.97;;
23410;SDS011;11878;51.774;7.220;2023-04-01T02:57:21;5.33;;;2.13;;
23410;SDS011;11878;51.774;7.220;2023-04-01T03:00:25;5.50;;;2.07;;
23410;SDS011;11878;51.774;7.220;2023-04-01T03:03:35;1.93;;;1.73;;
23410;SDS011;11878;51.774;7.220;2023-04-01T03:06:37;3.67;;;2.80;;
23410;SDS011;11878;51.774;7.220;2023-04-01T03:09:39;6.27;;;2.70;;
23410;SDS011;11878;51.774;7.220;2023-04-01T03:12:41;5.63;;;2.90;;
23410;SDS011;11878;51.774;7.220;2023-04-01T03:15:43;5.53;;;3.10;;
23410;SDS011;11878;51.774;7.220;2023-04-01T03:18:44;6.47;;;2.97;;
23410;SDS011;11878;51.774;7.220;2023-04-01T03:21:46;3.97;;;3.03;;
23410;SDS011;11878;51.774;7.220;2023-04-01T03:24:48;6.43;;;2.87;;
23410;SDS011;11878;51.774;7.220;2023-04-01T03:27:50;6.43;;;2.30;;
23410;SDS011;11878;51.774;7.220;2023-04-01T03:30:52;5.63;;;2.97;;
23410;SDS011;11878;51.774;7.220;2023-04-01T03:33:54;5.90;;;2.20;;
23410;SDS011;11878;51.774;7.220;2023-04-01T03:36:56;7.97;;;2.80;;
23410;SDS011;11878;51.774;7.220;2023-04-01T03:39:58;9.10;;;2.57;;
23410;SDS011;11878;51.774;7.220;2023-04-01T03:43:00;5.60;;;2.83;;
23410;SDS011;11878;51.774;7.220;2023-04-01T03:46:02;4.50;;;2.17;;
23410;SDS011;11878;51.774;7.220;2023-04-01T03:49:10;6.20;;;2.40;;
23410;SDS011;11878;51.774;7.220;2023-04-01T03:52:13;7.17;;;2.77;;
23410;SDS011;11878;51.774;7.220;2023-04-01T03:55:14;5.10;;;2.00;;
23410;SDS011;11878;51.774;7.220;2023-04-01T03:58:16;9.07;;;2.57;;
23410;SDS011;11878;51.774;7.220;2023-04-01T04:01:19;5.27;;;2.60;;
23410;SDS011;11878;51.774;7.220;2023-04-01T04:04:26;5.93;;;2.63;;
23410;SDS011;11878;51.774;7.220;2023-04-01T04:07:28;9.93;;;3.63;;
23410;SDS011;11878;51.774;7.220;2023-04-01T04:10:35;15.63;;;3.60;;
23410;SDS011;11878;51.774;7.220;2023-04-01T04:13:38;5.30;;;3.73;;
23410;SDS011;11878;51.774;7.220;2023-04-01T04:16:40;10.17;;;3.53;;
23410;SDS011;11878;51.774;7.220;2023-04-01T04:19:43;6.47;;;4.00;;
23410;SDS011;11878;51.774;7.220;2023-04-01T04:22:47;5.67;;;3.93;;
23410;SDS011;11878;51.774;7.220;2023-04-01T04:26:09;6.87;;;3.77;;
23410;SDS011;11878;51.774;7.220;2023-04-01T04:29:14;7.97;;;3.77;;
23410;SDS011;11878;51.774;7.220;2023-04-01T04:32:16;7.03;;;3.70;;
23410;SDS011;11878;51.774;7.220;2023-04-01T04:35:19;9.83;;;3.97;;
23410;SDS011;11878;51.774;7.220;2023-04-01T04:38:22;7.57;;;3.77;;
23410;SDS011;11878;51.774;7.220;2023-04-01T04:41:25;7.37;;;3.70;;
23410;SDS011;11878;51.774;7.220;2023-04-01T04:44:27;6.23;;;4.13;;
23410;SDS011;11878;51.774;7.220;2023-04-01T04:47:29;8.13;;;3.63;;
23410;SDS011;11878;51.774;7.220;2023-04-01T04:50:32;5.10;;;3.87;;
23410;SDS011;11878;51.774;7.220;2023-04-01T04:53:34;7.67;;;4.10;;
23410;SDS011;11878;51.774;7.220;2023-04-01T04:56:37;12.00;;;4.20;;
23410;SDS011;11878;51.774;7.220;2023-04-01T04:59:42;7.33;;;4.43;;
23410;SDS011;11878;51.774;7.220;2023-04-01T05:02:58;8.30;;;4.83;;
23410;SDS011;11878;51.774;7.220;2023-04-01T05:06:03;8.17;;;5.33;;
23410;SDS011;11878;51.774;7.220;2023-04-01T05:09:12;9.50;;;5.00;;
23410;SDS011;11878;51.774;7.220;2023-04-01T05:12:14;9.80;;;4.93;;
23410;SDS011;11878;51.774;7.220;2023-04-01T05:15:31;7.77;;;4.93;;
23410;SDS011;11878;51.774;7.220;2023-04-01T05:18:35;11.03;;;5.33;;
23410;SDS011;11878;51.774;7.220;2023-04-01T05:21:40;9.80;;;5.47;;
23410;SDS011;11878;51.774;7.220;2023-04-01T05:24:42;10.63;;;6.10;;
23410;SDS011;11878;51.774;7.220;2023-04-01T05:27:46;7.27;;;5.13;;
23410;SDS011;11878;51.774;7.220;2023-04-01T05:30:47;9.83;;;5.83;;
23410;SDS011;11878;51.774;7.220;2023-04-01T05:33:58;13.33;;;5.97;;
23410;SDS011;11878;51.774;7.220;2023-04-01T05:36:59;9.90;;;5.77;;
23410;SDS011;11878;51.774;7.220;2023-04-01T05:40:02;11.77;;;5.77;;
23410;SDS011;11878;51.774;7.220;2023-04-01T05:43:04;10.60;;;5.87;;
23410;SDS011;11878;51.774;7.220;2023-04-01T05:53:15;11.30;;;5.33;;
23410;SDS011;11878;51.774;7.220;2023-04-01T05:56:17;9.63;;;5.73;;
23410;SDS011;11878;51.774;7.220;2023-04-01T06:04:14;11.43;;;6.20;;
23410;SDS011;11878;51.774;7.220;2023-04-01T06:07:29;12.80;;;4.70;;
23410;SDS011;11878;51.774;7.220;2023-04-01T06:11:22;7.50;;;4.77;;
23410;SDS011;11878;51.774;7.220;2023-04-01T06:17:20;8.57;;;5.23;;
23410;SDS011;11878;51.774;7.220;2023-04-01T06:20:58;9.10;;;5.27;;
23410;SDS011;11878;51.774;7.220;2023-04-01T06:25:03;8.73;;;4.53;;
23410;SDS011;11878;51.774;7.220;2023-04-01T06:31:39;10.70;;;4.60;;
23410;SDS011;11878;51.774;7.220;2023-04-01T06:45:28;8.00;;;4.30;;
23410;SDS011;11878;51.774;7.220;2023-04-01T06:49:00;10.07;;;4.60;;
23410;SDS011;11878;51.774;7.220;2023-04-01T06:52:47;6.40;;;4.33;;
23410;SDS011;11878;51.774;7.220;2023-04-01T06:56:18;7.47;;;4.80;;
23410;SDS011;11878;51.774;7.220;2023-04-01T06:59:54;5.37;;;3.77;;
23410;SDS011;11878;51.774;7.220;2023-04-01T07:03:05;7.20;;;3.87;;
23410;SDS011;11878;51.774;7.220;2023-04-01T07:09:52;5.43;;;3.37;;
23410;SDS011;11878;51.774;7.220;2023-04-01T07:13:09;6.77;;;4.17;;
23410;SDS011;11878;51.774;7.220;2023-04-01T07:16:53;6.47;;;3.87;;
23410;SDS011;11878;51.774;7.220;2023-04-01T07:20:32;5.83;;;4.10;;
23410;SDS011;11878;51.774;7.220;2023-04-01T07:23:39;5.63;;;3.53;;
23410;SDS011;11878;51.774;7.220;2023-04-01T07:27:10;7.07;;;3.57;;
23410;SDS011;11878;51.774;7.220;2023-04-01T07:36:32;6.67;;;3.33;;
23410;SDS011;11878;51.774;7.220;2023-04-01T07:50:13;6.17;;;3.30;;
23410;SDS011;11878;51.774;7.220;2023-04-01T07:54:03;10.27;;;4.20;;
23410;SDS011;11878;51.774;7.220;2023-04-01T08:00:54;5.53;;;3.50;;
23410;SDS011;11878;51.774;7.220;2023-04-01T08:07:55;4.80;;;2.90;;
23410;SDS011;11878;51.774;7.220;2023-04-01T08:19:45;4.47;;;2.50;;
23410;SDS011;11878;51.774;7.220;2023-04-01T08:23:01;3.57;;;2.10;;
23410;SDS011;11878;51.774;7.220;2023-04-01T08:26:28;4.23;;;2.73;;
23410;SDS011;11878;51.774;7.220;2023-04-01T08:33:00;2.80;;;1.90;;
23410;SDS011;11878;51.774;7.220;2023-04-01T08:36:50;3.23;;;1.90;;
23410;SDS011;11878;51.774;7.220;2023-04-01T08:44:04;2.73;;;1.80;;
23410;SDS011;11878;51.774;7.220;2023-04-01T08:58:32;1.80;;;1.20;;
23410;SDS011;11878;51.774;7.220;2023-04-01T09:23:46;2.47;;;1.00;;
23410;SDS011;11878;51.774;7.220;2023-04-01T09:41:24;3.20;;;1.70;;
23410;SDS011;11878;51.774;7.220;2023-04-01T09:48:09;2.93;;;1.87;;
23410;SDS011;11878;51.774;7.220;2023-04-01T09:51:52;4.73;;;1.87;;
23410;SDS011;11878;51.774;7.220;2023-04-01T10:02:43;3.93;;;2.83;;
23410;SDS011;11878;51.774;7.220;2023-04-01T10:06:15;3.77;;;2.33;;
23410;SDS011;11878;51.774;7.220;2023-04-01T10:10:00;2.87;;;2.07;;
23410;SDS011;11878;51.774;7.220;2023-04-01T10:13:30;2.63;;;1.63;;
23410;SDS011;11878;51.774;7.220;2023-04-01T10:45:34;3.23;;;2.30;;
23410;SDS011;11878;51.774;7.220;2023-04-01T10:49:11;4.53;;;2.47;;
23410;SDS011;11878;51.774;7.220;2023-04-01T11:32:59;2.90;;;1.47;;
23410;SDS011;11878;51.774;7.220;2023-04-01T11:53:47;1.23;;;0.73;;
23410;SDS011;11878;51.774;7.220;2023-04-01T12:04:27;2.00;;;1.00;;
23410;SDS011;11878;51.774;7.220;2023-04-01T12:11:18;2.93;;;1.50;;
23410;SDS011;11878;51.774;7.220;2023-04-01T12:17:45;3.57;;;2.00;;
23410;SDS011;11878;51.774;7.220;2023-04-01T12:28:14;3.53;;;2.10;;
23410;SDS011;11878;51.774;7.220;2023-04-01T12:34:54;6.67;;;2.23;;
23410;SDS011;11878;51.774;7.220;2023-04-01T12:41:26;3.80;;;2.20;;
23410;SDS011;11878;51.774;7.220;2023-04-01T12:58:42;3.47;;;2.00;;
23410;SDS011;11878;51.774;7.220;2023-04-01T13:02:50;2.87;;;1.50;;
23410;SDS011;11878;51.774;7.220;2023-04-01T13:10:56;3.00;;;1.60;;
23410;SDS011;11878;51.774;7.220;2023-04-01T13:14:35;3.47;;;1.60;;
23410;SDS011;11878;51.774;7.220;2023-04-01T14:00:35;6.53;;;4.83;;
23410;SDS011;11878;51.774;7.220;2023-04-01T14:10:43;7.13;;;3.40;;
23410;SDS011;11878;51.774;7.220;2023-04-01T14:20:41;3.87;;;2.47;;
23410;SDS011;11878;51.774;7.220;2023-04-01T14:30:38;4.10;;;2.60;;
23410;SDS011;11878;51.774;7.220;2023-04-01T14:37:26;5.00;;;2.80;;
23410;SDS011;11878;51.774;7.220;2023-04-01T14:44:11;5.03;;;2.90;;
23410;SDS011;11878;51.774;7.220;2023-04-01T14:50:57;7.37;;;2.67;;
23410;SDS011;11878;51.774;7.220;2023-04-01T14:54:32;4.53;;;2.73;;
23410;SDS011;11878;51.774;7.220;2023-04-01T14:57:37;4.43;;;2.70;;
23410;SDS011;11878;51.774;7.220;2023-04-01T15:00:47;7.17;;;3.47;;
23410;SDS011;11878;51.774;7.220;2023-04-01T15:03:57;6.47;;;3.00;;
23410;SDS011;11878;51.774;7.220;2023-04-01T15:18:39;5.60;;;2.97;;
23410;SDS011;11878;51.774;7.220;2023-04-01T15:22:37;5.57;;;3.07;;
23410;SDS011;11878;51.774;7.220;2023-04-01T15:26:03;6.83;;;4.20;;
23410;SDS011;11878;51.774;7.220;2023-04-01T15:37:12;9.57;;;5.33;;
23410;SDS011;11878;51.774;7.220;2023-04-01T15:40:48;12.07;;;6.33;;
23410;SDS011;11878;51.774;7.220;2023-04-01T16:02:09;7.30;;;3.90;;
23410;SDS011;11878;51.774;7.220;2023-04-01T16:05:45;4.20;;;2.80;;
23410;SDS011;11878;51.774;7.220;2023-04-01T16:09:23;5.90;;;3.10;;
23410;SDS011;11878;51.774;7.220;2023-04-01T16:12:54;6.40;;;3.10;;
23410;SDS011;11878;51.774;7.220;2023-04-01T16:23:04;5.83;;;3.27;;
23410;SDS011;11878;51.774;7.220;2023-04-01T16:26:13;4.77;;;2.97;;
23410;SDS011;11878;51.774;7.220;2023-04-01T16:32:34;5.13;;;3.13;;
23410;SDS011;11878;51.774;7.220;2023-04-01T16:35:58;5.57;;;3.20;;
23410;SDS011;11878;51.774;7.220;2023-04-01T16:44:18;6.00;;;2.97;;
23410;SDS011;11878;51.774;7.220;2023-04-01T16:48:24;5.40;;;4.27;;
23410;SDS011;11878;51.774;7.220;2023-04-01T16:51:23;3.20;;;2.13;;
23410;SDS011;11878;51.774;7.220;2023-04-01T16:54:47;4.60;;;2.47;;
23410;SDS011;11878;51.774;7.220;2023-04-01T16:58:01;4.30;;;2.80;;
23410;SDS011;11878;51.774;7.220;2023-04-01T17:08:28;4.23;;;2.20;;
23410;SDS011;11878;51.774;7.220;2023-04-01T17:26:46;6.23;;;3.20;;
23410;SDS011;11878;51.774;7.220;2023-04-01T17:34:05;4.60;;;2.57;;
23410;SDS011;11878;51.774;7.220;2023-04-01T17:37:44;3.77;;;3.13;;
23410;SDS011;11878;51.774;7.220;2023-04-01T17:51:46;4.27;;;2.17;;
23410;SDS011;11878;51.774;7.220;2023-04-01T18:23:19;1.40;;;1.00;;
23410;SDS011;11878;51.774;7.220;2023-04-01T18:26:35;6.03;;;1.03;;
23410;SDS011;11878;51.774;7.220;2023-04-01T18:29:44;1.00;;;0.80;;
23410;SDS011;11878;51.774;7.220;2023-04-01T18:39:49;1.00;;;0.90;;
23410;SDS011;11878;51.774;7.220;2023-04-01T18:50:06;2.30;;;1.17;;
23410;SDS011;11878;51.774;7.220;2023-04-01T18:57:07;2.03;;;1.30;;
23410;SDS011;11878;51.774;7.220;2023-04-01T19:03:31;2.37;;;1.77;;
23410;SDS011;11878;51.774;7.220;2023-04-01T19:07:24;2.47;;;2.17;;
23410;SDS011;11878;51.774;7.220;2023-04-01T19:10:56;2.33;;;1.60;;
23410;SDS011;11878;51.774;7.220;2023-04-01T19:14:14;1.10;;;1.00;;
23410;SDS011;11878;51.774;7.220;2023-04-01T19:17:43;2.03;;;1.40;;
23410;SDS011;11878;51.774;7.220;2023-04-01T19:21:16;1.80;;;1.30;;
23410;SDS011;11878;51.774;7.220;2023-04-01T19:27:53;0.90;;;0.90;;
23410;SDS011;11878;51.774;7.220;2023-04-01T19:31:32;1.33;;;1.03;;
23410;SDS011;11878;51.774;7.220;2023-04-01T19:38:14;1.13;;;0.90;;
23410;SDS011;11878;51.774;7.220;2023-04-01T19:44:51;1.60;;;0.90;;
23410;SDS011;11878;51.774;7.220;2023-04-01T20:01:47;1.40;;;0.80;;
23410;SDS011;11878;51.774;7.220;2023-04-01T20:04:57;0.83;;;0.60;;
23410;SDS011;11878;51.774;7.220;2023-04-01T20:08:32;0.63;;;0.63;;
23410;SDS011;11878;51.774;7.220;2023-04-01T20:11:54;0.73;;;0.60;;
23410;SDS011;11878;51.774;7.220;2023-04-01T20:15:03;2.87;;;0.63;;
23410;SDS011;11878;51.774;7.220;2023-04-01T20:18:33;1.83;;;1.10;;
23410;SDS011;11878;51.774;7.220;2023-04-01T20:21:37;1.83;;;1.10;;
23410;SDS011;11878;51.774;7.220;2023-04-01T20:24:47;1.47;;;0.97;;
23410;SDS011;11878;51.774;7.220;2023-04-01T20:31:23;1.70;;;1.10;;
23410;SDS011;11878;51.774;7.220;2023-04-01T20:38:11;1.90;;;1.20;;
23410;SDS011;11878;51.774;7.220;2023-04-01T20:41:42;1.37;;;1.17;;
23410;SDS011;11878;51.774;7.220;2023-04-01T20:44:57;1.67;;;1.33;;
23410;SDS011;11878;51.774;7.220;2023-04-01T20:48:27;1.63;;;1.10;;
23410;SDS011;11878;51.774;7.220;2023-04-01T20:51:54;1.50;;;1.20;;
23410;SDS011;11878;51.774;7.220;2023-04-01T20:58:29;1.80;;;1.00;;
23410;SDS011;11878;51.774;7.220;2023-04-01T21:05:45;1.47;;;1.10;;
23410;SDS011;11878;51.774;7.220;2023-04-01T21:13:11;1.47;;;1.10;;
23410;SDS011;11878;51.774;7.220;2023-04-01T21:16:53;1.57;;;1.10;;
23410;SDS011;11878;51.774;7.220;2023-04-01T21:27:55;1.37;;;1.00;;
23410;SDS011;11878;51.774;7.220;2023-04-01T21:34:55;2.70;;;0.90;;
23410;SDS011;11878;51.774;7.220;2023-04-01T21:51:07;1.43;;;0.80;;
23410;SDS011;11878;51.774;7.220;2023-04-01T22:07:39;0.70;;;0.70;;
23410;SDS011;11878;51.774;7.220;2023-04-01T22:10:59;1.33;;;1.00;;
23410;SDS011;11878;51.774;7.220;2023-04-01T22:17:40;1.23;;;1.00;;
23410;SDS011;11878;51.774;7.220;2023-04-01T22:21:25;2.20;;;1.37;;
23410;SDS011;11878;51.774;7.220;2023-04-01T22:24:37;1.87;;;1.20;;
23410;SDS011;11878;51.774;7.220;2023-04-01T22:27:54;1.53;;;0.80;;
23410;SDS011;11878;51.774;7.220;2023-04-01T22:31:05;1.83;;;1.00;;
23410;SDS011;11878;51.774;7.220;2023-04-01T22:34:12;1.10;;;0.83;;
23410;SDS011;11878;51.774;7.220;2023-04-01T22:44:01;1.10;;;0.87;;
23410;SDS011;11878;51.774;7.220;2023-04-01T22:47:04;2.50;;;1.03;;
23410;SDS011;11878;51.774;7.220;2023-04-01T22:56:51;1.90;;;1.00;;
23410;SDS011;11878;51.774;7.220;2023-04-01T23:03:36;2.17;;;0.90;;
23410;SDS011;11878;51.774;7.220;2023-04-01T23:06:43;1.10;;;0.83;;
23410;SDS011;11878;51.774;7.220;2023-04-01T23:09:51;1.67;;;0.77;;
23410;SDS011;11878;51.774;7.220;2023-04-01T23:12:58;1.60;;;1.10;;
23410;SDS011;11878;51.774;7.220;2023-04-01T23:16:02;3.17;;;1.00;;
23410;SDS011;11878;51.774;7.220;2023-04-01T23:19:11;1.50;;;1.00;;
23410;SDS011;11878;51.774;7.220;2023-04-01T23:22:32;1.03;;;0.70;;
23410;SDS011;11878;51.774;7.220;2023-04-01T23:29:17;1.00;;;0.70;;
23410;SDS011;11878;51.774;7.220;2023-04-01T23:32:23;0.93;;;0.80;;
23410;SDS011;11878;51.774;7.220;2023-04-01T23:35:27;1.80;;;0.90;;
23410;SDS011;11878;51.774;7.220;2023-04-01T23:38:29;1.73;;;0.83;;
23410;SDS011;11878;51.774;7.220;2023-04-01T23:41:40;1.17;;;0.90;;
23410;SDS011;11878;51.774;7.220;2023-04-01T23:44:42;1.07;;;0.70;;
23410;SDS011;11878;51.774;7.220;2023-04-01T23:47:45;1.40;;;1.07;;
23410;SDS011;11878;51.774;7.220;2023-04-01T23:50:51;1.43;;;0.93;;
23410;SDS011;11878;51.774;7.220;2023-04-01T23:53:59;1.30;;;1.00;;
23410;SDS011;11878;51.774;7.220;2023-04-01T23:57:18;1.10;;;0.80;;
